sensor_id;sensor_type;location;lat;lon;timestamp;temperature;humidity
56980;DHT22;42867;48.186;11.534;2022-08-11T00:03:06;20.40;63.80
56980;DHT22;42867;48.186;11.534;2022-08-11T00:05:42;20.30;63.20
56980;DHT22;42867;48.186;11.534;2022-08-11T00:08:09;20.30;64.60
56980;DHT22;42867;48.186;11.534;2022-08-11T00:13:04;20.00;64.20
56980;DHT22;42867;48.186;11.534;2022-08-11T00:15:41;20.10;64.70
56980;DHT22;42867;48.186;11.534;2022-08-11T00:20:37;20.10;64.70
56980;DHT22;42867;48.186;11.534;2022-08-11T00:23:22;20.20;79.70
56980;DHT22;42867;48.186;11.534;2022-08-11T00:25:50;20.10;64.90
56980;DHT22;42867;48.186;11.534;2022-08-11T00:28:26;19.80;79.80
56980;DHT22;42867;48.186;11.534;2022-08-11T00:30:53;20.10;64.70
56980;DHT22;42867;48.186;11.534;2022-08-11T00:33:21;21.50;66.00
56980;DHT22;42867;48.186;11.534;2022-08-11T00:35:49;20.00;65.00
56980;DHT22;42867;48.186;11.534;2022-08-11T00:38:16;19.90;65.70
56980;DHT22;42867;48.186;11.534;2022-08-11T00:41:17;19.90;65.30
56980;DHT22;42867;48.186;11.534;2022-08-11T00:44:06;19.80;66.10
56980;DHT22;42867;48.186;11.534;2022-08-11T00:52:38;19.70;82.30
56980;DHT22;42867;48.186;11.534;2022-08-11T01:14:50;18.90;69.90
56980;DHT22;42867;48.186;11.534;2022-08-11T01:46:32;18.90;70.70
56980;DHT22;42867;48.186;11.534;2022-08-11T01:59:46;18.80;88.40
56980;DHT22;42867;48.186;11.534;2022-08-11T02:02:32;18.50;82.90
56980;DHT22;42867;48.186;11.534;2022-08-11T02:08:46;18.60;73.70
56980;DHT22;42867;48.186;11.534;2022-08-11T02:11:20;18.60;90.10
56980;DHT22;42867;48.186;11.534;2022-08-11T02:19:24;18.50;74.20
56980;DHT22;42867;48.186;11.534;2022-08-11T02:22:18;18.40;78.70
56980;DHT22;42867;48.186;11.534;2022-08-11T02:25:10;18.40;91.40
56980;DHT22;42867;48.186;11.534;2022-08-11T02:27:58;18.50;76.50
56980;DHT22;42867;48.186;11.534;2022-08-11T02:30:31;18.40;76.40
56980;DHT22;42867;48.186;11.534;2022-08-11T02:33:19;18.40;76.80
56980;DHT22;42867;48.186;11.534;2022-08-11T02:41:11;18.30;90.90
56980;DHT22;42867;48.186;11.534;2022-08-11T02:46:58;18.10;76.40
56980;DHT22;42867;48.186;11.534;2022-08-11T02:52:43;18.10;76.50
56980;DHT22;42867;48.186;11.534;2022-08-11T02:55:22;18.10;77.10
56980;DHT22;42867;48.186;11.534;2022-08-11T03:03:09;18.10;77.90
56980;DHT22;42867;48.186;11.534;2022-08-11T03:11:11;17.90;78.10
56980;DHT22;42867;48.186;11.534;2022-08-11T03:17:25;17.80;79.30
56980;DHT22;42867;48.186;11.534;2022-08-11T03:33:59;18.00;93.60
56980;DHT22;42867;48.186;11.534;2022-08-11T03:44:42;17.60;81.80
56980;DHT22;42867;48.186;11.534;2022-08-11T03:50:29;17.60;83.20
56980;DHT22;42867;48.186;11.534;2022-08-11T04:04:57;17.10;95.20
56980;DHT22;42867;48.186;11.534;2022-08-11T04:35:25;17.70;86.70
56980;DHT22;42867;48.186;11.534;2022-08-11T04:41:13;17.50;86.90
56980;DHT22;42867;48.186;11.534;2022-08-11T04:46:56;17.60;93.40
56980;DHT22;42867;48.186;11.534;2022-08-11T04:55:27;17.50;96.80
56980;DHT22;42867;48.186;11.534;2022-08-11T04:58:27;17.30;89.00
56980;DHT22;42867;48.186;11.534;2022-08-11T05:04:30;17.30;89.10
56980;DHT22;42867;48.186;11.534;2022-08-11T05:10:43;17.30;89.60
56980;DHT22;42867;48.186;11.534;2022-08-11T05:13:26;17.10;97.60
56980;DHT22;42867;48.186;11.534;2022-08-11T05:16:12;17.40;89.80
56980;DHT22;42867;48.186;11.534;2022-08-11T05:19:00;17.40;90.00
56980;DHT22;42867;48.186;11.534;2022-08-11T05:21:50;17.40;90.00
56980;DHT22;42867;48.186;11.534;2022-08-11T05:24:49;17.60;89.30
56980;DHT22;42867;48.186;11.534;2022-08-11T05:30:41;17.80;89.30
56980;DHT22;42867;48.186;11.534;2022-08-11T05:37:21;17.90;88.70
56980;DHT22;42867;48.186;11.534;2022-08-11T05:39:25;17.90;88.50
56980;DHT22;42867;48.186;11.534;2022-08-11T05:45:08;18.00;89.10
56980;DHT22;42867;48.186;11.534;2022-08-11T05:58:52;18.40;96.90
56980;DHT22;42867;48.186;11.534;2022-08-11T06:01:27;18.30;89.20
56980;DHT22;42867;48.186;11.534;2022-08-11T06:03:56;18.30;88.50
56980;DHT22;42867;48.186;11.534;2022-08-11T06:06:48;18.90;94.70
56980;DHT22;42867;48.186;11.534;2022-08-11T06:09:23;18.40;88.30
56980;DHT22;42867;48.186;11.534;2022-08-11T06:11:49;18.50;87.40
56980;DHT22;42867;48.186;11.534;2022-08-11T06:16:42;18.60;88.00
56980;DHT22;42867;48.186;11.534;2022-08-11T06:24:11;18.60;86.80
56980;DHT22;42867;48.186;11.534;2022-08-11T06:29:04;18.70;86.20
56980;DHT22;42867;48.186;11.534;2022-08-11T06:31:31;18.80;85.90
56980;DHT22;42867;48.186;11.534;2022-08-11T06:37:26;18.90;85.70
56980;DHT22;42867;48.186;11.534;2022-08-11T06:40:14;18.60;84.90
56980;DHT22;42867;48.186;11.534;2022-08-11T06:42:55;18.90;95.80
56980;DHT22;42867;48.186;11.534;2022-08-11T06:50:35;19.00;85.00
56980;DHT22;42867;48.186;11.534;2022-08-11T06:55:47;19.10;84.90
56980;DHT22;42867;48.186;11.534;2022-08-11T07:01:56;19.50;95.60
56980;DHT22;42867;48.186;11.534;2022-08-11T07:04:41;19.30;85.20
56980;DHT22;42867;48.186;11.534;2022-08-11T07:10:50;19.40;85.50
56980;DHT22;42867;48.186;11.534;2022-08-11T07:13:38;19.30;86.70
56980;DHT22;42867;48.186;11.534;2022-08-11T07:16:29;19.50;86.00
56980;DHT22;42867;48.186;11.534;2022-08-11T07:18:58;19.50;86.60
56980;DHT22;42867;48.186;11.534;2022-08-11T07:21:45;19.60;86.10
56980;DHT22;42867;48.186;11.534;2022-08-11T07:24:39;19.70;95.50
56980;DHT22;42867;48.186;11.534;2022-08-11T07:27:27;19.60;84.90
56980;DHT22;42867;48.186;11.534;2022-08-11T07:30:12;19.90;95.90
56980;DHT22;42867;48.186;11.534;2022-08-11T07:32:49;19.80;84.90
56980;DHT22;42867;48.186;11.534;2022-08-11T07:35:19;19.90;84.40
56980;DHT22;42867;48.186;11.534;2022-08-11T07:37:49;20.00;84.60
56980;DHT22;42867;48.186;11.534;2022-08-11T07:40:24;20.20;84.00
56980;DHT22;42867;48.186;11.534;2022-08-11T07:42:51;20.10;83.40
56980;DHT22;42867;48.186;11.534;2022-08-11T07:45:17;20.30;94.70
56980;DHT22;42867;48.186;11.534;2022-08-11T07:48:02;20.30;83.60
56980;DHT22;42867;48.186;11.534;2022-08-11T07:50:48;20.30;82.90
56980;DHT22;42867;48.186;11.534;2022-08-11T07:53:33;20.20;94.40
56980;DHT22;42867;48.186;11.534;2022-08-11T07:56:01;20.10;93.70
56980;DHT22;42867;48.186;11.534;2022-08-11T07:58:27;20.50;81.70
56980;DHT22;42867;48.186;11.534;2022-08-11T08:01:19;20.90;82.40
56980;DHT22;42867;48.186;11.534;2022-08-11T08:04:05;20.90;83.40
56980;DHT22;42867;48.186;11.534;2022-08-11T08:09:35;20.50;93.50
56980;DHT22;42867;48.186;11.534;2022-08-11T08:12:21;20.70;80.30
56980;DHT22;42867;48.186;11.534;2022-08-11T08:15:08;21.10;93.20
56980;DHT22;42867;48.186;11.534;2022-08-11T08:17:54;20.90;79.90
56980;DHT22;42867;48.186;11.534;2022-08-11T08:20:26;20.80;79.30
56980;DHT22;42867;48.186;11.534;2022-08-11T08:22:55;20.90;80.10
56980;DHT22;42867;48.186;11.534;2022-08-11T08:25:24;21.00;90.50
56980;DHT22;42867;48.186;11.534;2022-08-11T08:27:51;21.00;80.00
56980;DHT22;42867;48.186;11.534;2022-08-11T08:30:17;21.00;93.00
56980;DHT22;42867;48.186;11.534;2022-08-11T08:33:02;20.80;91.00
56980;DHT22;42867;48.186;11.534;2022-08-11T08:42:51;21.30;77.70
56980;DHT22;42867;48.186;11.534;2022-08-11T08:45:19;21.40;77.20
56980;DHT22;42867;48.186;11.534;2022-08-11T08:47:52;21.50;76.80
56980;DHT22;42867;48.186;11.534;2022-08-11T08:50:20;21.60;76.80
56980;DHT22;42867;48.186;11.534;2022-08-11T08:53:08;21.60;76.10
56980;DHT22;42867;48.186;11.534;2022-08-11T08:55:34;21.80;91.10
56980;DHT22;42867;48.186;11.534;2022-08-11T08:58:00;22.20;91.20
56980;DHT22;42867;48.186;11.534;2022-08-11T09:00:40;21.20;74.90
56980;DHT22;42867;48.186;11.534;2022-08-11T09:10:25;21.70;90.50
56980;DHT22;42867;48.186;11.534;2022-08-11T09:15:22;22.10;73.80
56980;DHT22;42867;48.186;11.534;2022-08-11T09:17:53;22.00;90.50
56980;DHT22;42867;48.186;11.534;2022-08-11T09:20:35;22.70;90.60
56980;DHT22;42867;48.186;11.534;2022-08-11T09:23:04;22.30;73.80
56980;DHT22;42867;48.186;11.534;2022-08-11T09:25:56;22.40;74.40
56980;DHT22;42867;48.186;11.534;2022-08-11T09:28:43;22.00;89.70
56980;DHT22;42867;48.186;11.534;2022-08-11T09:31:10;22.60;87.60
56980;DHT22;42867;48.186;11.534;2022-08-11T09:33:36;22.20;77.40
56980;DHT22;42867;48.186;11.534;2022-08-11T09:38:50;22.50;85.50
56980;DHT22;42867;48.186;11.534;2022-08-11T09:41:36;22.40;74.70
56980;DHT22;42867;48.186;11.534;2022-08-11T09:44:02;22.40;88.60
56980;DHT22;42867;48.186;11.534;2022-08-11T09:46:48;22.50;89.00
56980;DHT22;42867;48.186;11.534;2022-08-11T09:49:19;22.80;70.70
56980;DHT22;42867;48.186;11.534;2022-08-11T09:51:46;22.80;71.50
56980;DHT22;42867;48.186;11.534;2022-08-11T09:54:14;23.10;87.80
56980;DHT22;42867;48.186;11.534;2022-08-11T09:56:41;22.80;87.50
56980;DHT22;42867;48.186;11.534;2022-08-11T09:59:26;23.00;70.20
56980;DHT22;42867;48.186;11.534;2022-08-11T10:01:56;23.10;68.30
56980;DHT22;42867;48.186;11.534;2022-08-11T10:04:39;23.20;67.60
56980;DHT22;42867;48.186;11.534;2022-08-11T10:09:56;23.30;69.30
56980;DHT22;42867;48.186;11.534;2022-08-11T10:12:25;23.40;67.40
56980;DHT22;42867;48.186;11.534;2022-08-11T10:14:55;23.50;68.80
56980;DHT22;42867;48.186;11.534;2022-08-11T10:17:47;23.90;82.10
56980;DHT22;42867;48.186;11.534;2022-08-11T10:20:34;23.40;81.40
56980;DHT22;42867;48.186;11.534;2022-08-11T10:23:02;23.70;63.90
56980;DHT22;42867;48.186;11.534;2022-08-11T10:25:48;23.60;79.90
56980;DHT22;42867;48.186;11.534;2022-08-11T10:28:34;24.10;64.80
56980;DHT22;42867;48.186;11.534;2022-08-11T10:31:00;24.30;79.40
56980;DHT22;42867;48.186;11.534;2022-08-11T10:33:46;23.90;79.60
56980;DHT22;42867;48.186;11.534;2022-08-11T10:36:36;24.10;66.20
56980;DHT22;42867;48.186;11.534;2022-08-11T10:39:13;24.30;65.00
56980;DHT22;42867;48.186;11.534;2022-08-11T10:41:45;24.10;74.10
56980;DHT22;42867;48.186;11.534;2022-08-11T10:44:44;24.40;64.30
56980;DHT22;42867;48.186;11.534;2022-08-11T10:47:12;24.30;80.30
56980;DHT22;42867;48.186;11.534;2022-08-11T10:49:57;24.50;61.50
56980;DHT22;42867;48.186;11.534;2022-08-11T10:52:44;24.30;78.70
56980;DHT22;42867;48.186;11.534;2022-08-11T10:58:15;25.00;64.30
56980;DHT22;42867;48.186;11.534;2022-08-11T11:00:59;24.80;80.20
56980;DHT22;42867;48.186;11.534;2022-08-11T11:03:28;25.20;68.70
56980;DHT22;42867;48.186;11.534;2022-08-11T11:06:00;25.40;61.50
56980;DHT22;42867;48.186;11.534;2022-08-11T11:08:28;25.60;72.60
56980;DHT22;42867;48.186;11.534;2022-08-11T11:11:13;25.70;58.00
56980;DHT22;42867;48.186;11.534;2022-08-11T11:13:43;25.90;61.10
56980;DHT22;42867;48.186;11.534;2022-08-11T11:16:29;26.10;59.50
56980;DHT22;42867;48.186;11.534;2022-08-11T11:19:15;26.50;71.20
56980;DHT22;42867;48.186;11.534;2022-08-11T11:21:47;26.50;56.40
56980;DHT22;42867;48.186;11.534;2022-08-11T11:27:20;27.00;69.00
56980;DHT22;42867;48.186;11.534;2022-08-11T11:35:25;28.10;69.20
56980;DHT22;42867;48.186;11.534;2022-08-11T11:37:56;27.50;56.00
56980;DHT22;42867;48.186;11.534;2022-08-11T11:40:23;27.90;53.70
56980;DHT22;42867;48.186;11.534;2022-08-11T11:42:51;28.00;51.70
56980;DHT22;42867;48.186;11.534;2022-08-11T11:45:22;28.10;54.00
56980;DHT22;42867;48.186;11.534;2022-08-11T11:47:51;28.20;53.60
56980;DHT22;42867;48.186;11.534;2022-08-11T11:50:35;28.20;51.50
56980;DHT22;42867;48.186;11.534;2022-08-11T11:53:08;28.40;51.50
56980;DHT22;42867;48.186;11.534;2022-08-11T11:58:02;28.50;52.30
56980;DHT22;42867;48.186;11.534;2022-08-11T12:00:47;28.70;52.50
56980;DHT22;42867;48.186;11.534;2022-08-11T12:03:34;28.80;49.70
56980;DHT22;42867;48.186;11.534;2022-08-11T12:06:01;28.80;52.40
56980;DHT22;42867;48.186;11.534;2022-08-11T12:10:57;29.00;50.10
56980;DHT22;42867;48.186;11.534;2022-08-11T12:13:45;29.50;54.00
56980;DHT22;42867;48.186;11.534;2022-08-11T12:16:13;29.20;48.40
56980;DHT22;42867;48.186;11.534;2022-08-11T12:18:41;29.10;47.20
56980;DHT22;42867;48.186;11.534;2022-08-11T12:21:09;29.50;62.60
56980;DHT22;42867;48.186;11.534;2022-08-11T12:23:36;29.40;51.00
56980;DHT22;42867;48.186;11.534;2022-08-11T12:29:08;29.50;47.40
56980;DHT22;42867;48.186;11.534;2022-08-11T12:31:36;29.50;49.30
56980;DHT22;42867;48.186;11.534;2022-08-11T12:34:07;29.40;48.10
56980;DHT22;42867;48.186;11.534;2022-08-11T12:36:45;29.40;45.80
56980;DHT22;42867;48.186;11.534;2022-08-11T12:39:18;29.40;47.80
56980;DHT22;42867;48.186;11.534;2022-08-11T12:41:45;29.20;50.80
56980;DHT22;42867;48.186;11.534;2022-08-11T12:47:19;30.00;59.30
56980;DHT22;42867;48.186;11.534;2022-08-11T12:49:49;30.00;47.60
56980;DHT22;42867;48.186;11.534;2022-08-11T12:52:37;30.10;46.90
56980;DHT22;42867;48.186;11.534;2022-08-11T12:57:38;30.40;46.60
56980;DHT22;42867;48.186;11.534;2022-08-11T13:00:26;30.60;46.20
56980;DHT22;42867;48.186;11.534;2022-08-11T13:05:59;30.90;46.40
56980;DHT22;42867;48.186;11.534;2022-08-11T13:08:28;31.00;45.20
56980;DHT22;42867;48.186;11.534;2022-08-11T13:10:56;31.00;46.00
56980;DHT22;42867;48.186;11.534;2022-08-11T13:16:09;30.70;44.20
56980;DHT22;42867;48.186;11.534;2022-08-11T13:18:36;30.70;44.10
56980;DHT22;42867;48.186;11.534;2022-08-11T13:21:03;31.00;48.70
56980;DHT22;42867;48.186;11.534;2022-08-11T13:23:30;31.10;45.10
56980;DHT22;42867;48.186;11.534;2022-08-11T13:28:23;31.30;45.30
56980;DHT22;42867;48.186;11.534;2022-08-11T13:30:49;31.00;49.20
56980;DHT22;42867;48.186;11.534;2022-08-11T13:33:42;31.40;43.80
56980;DHT22;42867;48.186;11.534;2022-08-11T13:36:09;30.90;45.10
56980;DHT22;42867;48.186;11.534;2022-08-11T13:38:36;30.70;44.20
56980;DHT22;42867;48.186;11.534;2022-08-11T13:41:03;30.40;53.80
56980;DHT22;42867;48.186;11.534;2022-08-11T13:43:49;30.80;43.50
56980;DHT22;42867;48.186;11.534;2022-08-11T13:53:59;31.50;41.60
56980;DHT22;42867;48.186;11.534;2022-08-11T13:56:26;31.90;43.10
56980;DHT22;42867;48.186;11.534;2022-08-11T13:58:53;32.00;42.50
56980;DHT22;42867;48.186;11.534;2022-08-11T14:01:20;32.10;42.20
56980;DHT22;42867;48.186;11.534;2022-08-11T14:03:47;32.10;41.30
56980;DHT22;42867;48.186;11.534;2022-08-11T14:06:16;31.90;40.10
56980;DHT22;42867;48.186;11.534;2022-08-11T14:11:10;31.80;40.90
56980;DHT22;42867;48.186;11.534;2022-08-11T14:16:30;32.20;51.20
56980;DHT22;42867;48.186;11.534;2022-08-11T14:19:01;32.20;49.80
56980;DHT22;42867;48.186;11.534;2022-08-11T14:21:29;32.10;41.30
56980;DHT22;42867;48.186;11.534;2022-08-11T14:24:16;32.10;41.60
56980;DHT22;42867;48.186;11.534;2022-08-11T14:29:15;31.80;40.30
56980;DHT22;42867;48.186;11.534;2022-08-11T14:32:02;31.40;49.10
56980;DHT22;42867;48.186;11.534;2022-08-11T14:34:28;31.70;38.40
56980;DHT22;42867;48.186;11.534;2022-08-11T14:36:59;31.60;45.10
56980;DHT22;42867;48.186;11.534;2022-08-11T14:39:28;31.20;39.60
56980;DHT22;42867;48.186;11.534;2022-08-11T14:41:56;31.00;40.90
56980;DHT22;42867;48.186;11.534;2022-08-11T14:44:46;30.90;40.80
56980;DHT22;42867;48.186;11.534;2022-08-11T14:47:36;30.80;43.50
56980;DHT22;42867;48.186;11.534;2022-08-11T14:50:03;30.70;53.30
56980;DHT22;42867;48.186;11.534;2022-08-11T14:52:32;30.00;43.50
56980;DHT22;42867;48.186;11.534;2022-08-11T14:55:00;29.60;43.20
56980;DHT22;42867;48.186;11.534;2022-08-11T15:00:13;29.00;44.60
56980;DHT22;42867;48.186;11.534;2022-08-11T15:02:41;28.80;44.90
56980;DHT22;42867;48.186;11.534;2022-08-11T15:05:26;28.50;45.30
56980;DHT22;42867;48.186;11.534;2022-08-11T15:07:54;28.30;45.40
56980;DHT22;42867;48.186;11.534;2022-08-11T15:12:47;27.90;47.40
56980;DHT22;42867;48.186;11.534;2022-08-11T15:15:14;27.80;46.70
56980;DHT22;42867;48.186;11.534;2022-08-11T15:18:02;27.60;46.60
56980;DHT22;42867;48.186;11.534;2022-08-11T15:20:29;27.70;46.20
56980;DHT22;42867;48.186;11.534;2022-08-11T15:26:06;27.60;47.60
56980;DHT22;42867;48.186;11.534;2022-08-11T15:28:36;27.60;47.70
56980;DHT22;42867;48.186;11.534;2022-08-11T15:31:25;27.70;48.10
56980;DHT22;42867;48.186;11.534;2022-08-11T15:33:54;27.70;47.20
56980;DHT22;42867;48.186;11.534;2022-08-11T15:36:41;27.80;46.40
56980;DHT22;42867;48.186;11.534;2022-08-11T15:39:44;27.90;56.30
56980;DHT22;42867;48.186;11.534;2022-08-11T15:42:32;27.90;45.10
56980;DHT22;42867;48.186;11.534;2022-08-11T15:45:21;27.80;47.00
56980;DHT22;42867;48.186;11.534;2022-08-11T15:48:09;27.80;47.50
56980;DHT22;42867;48.186;11.534;2022-08-11T15:50:40;27.70;46.70
56980;DHT22;42867;48.186;11.534;2022-08-11T15:53:14;27.70;43.40
56980;DHT22;42867;48.186;11.534;2022-08-11T15:55:42;27.60;46.10
56980;DHT22;42867;48.186;11.534;2022-08-11T15:58:11;27.40;56.20
56980;DHT22;42867;48.186;11.534;2022-08-11T16:09:09;27.00;46.20
56980;DHT22;42867;48.186;11.534;2022-08-11T16:11:36;26.90;44.00
56980;DHT22;42867;48.186;11.534;2022-08-11T16:14:03;26.50;55.60
56980;DHT22;42867;48.186;11.534;2022-08-11T16:16:50;26.60;45.80
56980;DHT22;42867;48.186;11.534;2022-08-11T16:19:18;26.70;47.30
56980;DHT22;42867;48.186;11.534;2022-08-11T16:21:44;26.50;46.00
56980;DHT22;42867;48.186;11.534;2022-08-11T16:24:12;26.40;45.90
56980;DHT22;42867;48.186;11.534;2022-08-11T16:26:41;26.40;46.90
56980;DHT22;42867;48.186;11.534;2022-08-11T16:29:09;26.50;57.40
56980;DHT22;42867;48.186;11.534;2022-08-11T16:31:37;26.20;47.60
56980;DHT22;42867;48.186;11.534;2022-08-11T16:34:04;26.20;46.30
56980;DHT22;42867;48.186;11.534;2022-08-11T16:36:53;26.10;47.40
56980;DHT22;42867;48.186;11.534;2022-08-11T16:42:05;26.40;48.10
56980;DHT22;42867;48.186;11.534;2022-08-11T16:44:50;25.90;47.40
56980;DHT22;42867;48.186;11.534;2022-08-11T16:50:02;25.90;58.60
56980;DHT22;42867;48.186;11.534;2022-08-11T16:57:23;25.70;49.10
56980;DHT22;42867;48.186;11.534;2022-08-11T17:00:09;26.00;59.80
56980;DHT22;42867;48.186;11.534;2022-08-11T17:02:41;25.70;49.30
56980;DHT22;42867;48.186;11.534;2022-08-11T17:11:01;26.00;48.50
56980;DHT22;42867;48.186;11.534;2022-08-11T17:16:22;25.50;60.10
56980;DHT22;42867;48.186;11.534;2022-08-11T17:21:50;25.50;48.70
56980;DHT22;42867;48.186;11.534;2022-08-11T17:24:38;25.20;60.00
56980;DHT22;42867;48.186;11.534;2022-08-11T17:27:06;25.40;48.40
56980;DHT22;42867;48.186;11.534;2022-08-11T17:29:51;25.80;51.60
56980;DHT22;42867;48.186;11.534;2022-08-11T17:32:22;25.30;48.20
56980;DHT22;42867;48.186;11.534;2022-08-11T17:35:14;25.20;60.80
56980;DHT22;42867;48.186;11.534;2022-08-11T17:40:53;25.20;47.10
56980;DHT22;42867;48.186;11.534;2022-08-11T17:43:39;24.70;50.20
56980;DHT22;42867;48.186;11.534;2022-08-11T17:46:24;24.60;52.40
56980;DHT22;42867;48.186;11.534;2022-08-11T17:49:11;25.10;48.40
56980;DHT22;42867;48.186;11.534;2022-08-11T17:51:38;25.00;47.70
56980;DHT22;42867;48.186;11.534;2022-08-11T17:54:25;25.00;48.90
56980;DHT22;42867;48.186;11.534;2022-08-11T17:57:10;25.00;47.70
56980;DHT22;42867;48.186;11.534;2022-08-11T17:59:56;24.90;52.30
56980;DHT22;42867;48.186;11.534;2022-08-11T18:02:39;24.80;47.90
56980;DHT22;42867;48.186;11.534;2022-08-11T18:05:29;24.40;50.80
56980;DHT22;42867;48.186;11.534;2022-08-11T18:07:58;24.60;59.20
56980;DHT22;42867;48.186;11.534;2022-08-11T18:10:44;24.70;47.90
56980;DHT22;42867;48.186;11.534;2022-08-11T18:13:32;24.60;48.00
56980;DHT22;42867;48.186;11.534;2022-08-11T18:16:18;24.80;58.40
56980;DHT22;42867;48.186;11.534;2022-08-11T18:19:03;24.30;59.30
56980;DHT22;42867;48.186;11.534;2022-08-11T18:21:50;24.50;49.10
56980;DHT22;42867;48.186;11.534;2022-08-11T18:24:42;24.80;59.60
56980;DHT22;42867;48.186;11.534;2022-08-11T18:27:30;23.90;59.60
56980;DHT22;42867;48.186;11.534;2022-08-11T18:30:15;24.00;60.00
56980;DHT22;42867;48.186;11.534;2022-08-11T18:33:01;24.90;59.20
56980;DHT22;42867;48.186;11.534;2022-08-11T18:35:53;24.70;59.70
56980;DHT22;42867;48.186;11.534;2022-08-11T18:38:42;24.20;49.10
56980;DHT22;42867;48.186;11.534;2022-08-11T18:41:28;24.10;49.10
56980;DHT22;42867;48.186;11.534;2022-08-11T18:44:16;24.30;58.70
56980;DHT22;42867;48.186;11.534;2022-08-11T18:47:05;24.00;49.20
56980;DHT22;42867;48.186;11.534;2022-08-11T18:49:52;24.00;49.80
56980;DHT22;42867;48.186;11.534;2022-08-11T18:52:40;24.00;61.00
56980;DHT22;42867;48.186;11.534;2022-08-11T18:55:27;26.70;51.10
56980;DHT22;42867;48.186;11.534;2022-08-11T18:58:14;24.10;59.30
56980;DHT22;42867;48.186;11.534;2022-08-11T19:01:01;23.70;50.90
56980;DHT22;42867;48.186;11.534;2022-08-11T19:03:48;23.70;51.00
56980;DHT22;42867;48.186;11.534;2022-08-11T19:06:34;23.20;61.90
56980;DHT22;42867;48.186;11.534;2022-08-11T19:12:07;23.50;51.90
56980;DHT22;42867;48.186;11.534;2022-08-11T19:14:52;23.30;61.40
56980;DHT22;42867;48.186;11.534;2022-08-11T19:17:41;23.60;61.10
56980;DHT22;42867;48.186;11.534;2022-08-11T19:20:30;23.50;61.90
56980;DHT22;42867;48.186;11.534;2022-08-11T19:23:17;23.40;51.40
56980;DHT22;42867;48.186;11.534;2022-08-11T19:26:05;23.10;62.70
56980;DHT22;42867;48.186;11.534;2022-08-11T19:28:51;23.00;53.90
56980;DHT22;42867;48.186;11.534;2022-08-11T19:31:36;23.20;51.60
56980;DHT22;42867;48.186;11.534;2022-08-11T19:34:23;23.10;50.60
56980;DHT22;42867;48.186;11.534;2022-08-11T19:37:09;22.90;56.50
56980;DHT22;42867;48.186;11.534;2022-08-11T19:39:57;23.50;55.10
56980;DHT22;42867;48.186;11.534;2022-08-11T19:42:42;23.00;52.40
56980;DHT22;42867;48.186;11.534;2022-08-11T19:45:28;22.90;55.20
56980;DHT22;42867;48.186;11.534;2022-08-11T19:48:13;23.20;62.80
56980;DHT22;42867;48.186;11.534;2022-08-11T19:50:58;22.90;53.20
56980;DHT22;42867;48.186;11.534;2022-08-11T19:53:43;23.20;65.40
56980;DHT22;42867;48.186;11.534;2022-08-11T19:56:28;22.90;53.10
56980;DHT22;42867;48.186;11.534;2022-08-11T19:59:14;22.90;57.00
56980;DHT22;42867;48.186;11.534;2022-08-11T20:01:58;23.20;65.80
56980;DHT22;42867;48.186;11.534;2022-08-11T20:10:16;22.50;55.00
56980;DHT22;42867;48.186;11.534;2022-08-11T20:13:08;22.60;52.80
56980;DHT22;42867;48.186;11.534;2022-08-11T20:15:53;22.60;52.90
56980;DHT22;42867;48.186;11.534;2022-08-11T20:21:24;22.40;52.60
56980;DHT22;42867;48.186;11.534;2022-08-11T20:24:09;22.40;53.60
56980;DHT22;42867;48.186;11.534;2022-08-11T20:26:55;25.50;55.00
56980;DHT22;42867;48.186;11.534;2022-08-11T20:29:40;22.60;68.60
56980;DHT22;42867;48.186;11.534;2022-08-11T20:37:54;22.30;55.10
56980;DHT22;42867;48.186;11.534;2022-08-11T20:40:39;22.30;56.00
56980;DHT22;42867;48.186;11.534;2022-08-11T20:43:25;22.20;55.10
56980;DHT22;42867;48.186;11.534;2022-08-11T20:46:12;21.90;70.30
56980;DHT22;42867;48.186;11.534;2022-08-11T20:48:58;22.00;57.10
56980;DHT22;42867;48.186;11.534;2022-08-11T20:51:45;22.00;56.90
56980;DHT22;42867;48.186;11.534;2022-08-11T20:54:30;22.30;57.30
56980;DHT22;42867;48.186;11.534;2022-08-11T20:57:18;22.40;71.00
56980;DHT22;42867;48.186;11.534;2022-08-11T21:00:03;21.60;65.60
56980;DHT22;42867;48.186;11.534;2022-08-11T21:02:49;21.90;63.80
56980;DHT22;42867;48.186;11.534;2022-08-11T21:05:38;22.00;57.80
56980;DHT22;42867;48.186;11.534;2022-08-11T21:08:26;21.70;69.70
56980;DHT22;42867;48.186;11.534;2022-08-11T21:11:14;22.10;56.50
56980;DHT22;42867;48.186;11.534;2022-08-11T21:14:01;22.30;60.60
56980;DHT22;42867;48.186;11.534;2022-08-11T21:16:46;22.10;55.40
56980;DHT22;42867;48.186;11.534;2022-08-11T21:19:31;22.00;66.10
56980;DHT22;42867;48.186;11.534;2022-08-11T21:22:29;22.20;55.90
56980;DHT22;42867;48.186;11.534;2022-08-11T21:25:15;22.10;69.90
56980;DHT22;42867;48.186;11.534;2022-08-11T21:28:03;22.00;69.40
56980;DHT22;42867;48.186;11.534;2022-08-11T21:30:50;22.10;55.30
56980;DHT22;42867;48.186;11.534;2022-08-11T21:33:36;22.30;70.40
56980;DHT22;42867;48.186;11.534;2022-08-11T21:36:23;19.80;54.20
56980;DHT22;42867;48.186;11.534;2022-08-11T21:39:10;22.00;55.80
56980;DHT22;42867;48.186;11.534;2022-08-11T21:41:57;21.90;55.80
56980;DHT22;42867;48.186;11.534;2022-08-11T21:44:43;21.80;70.80
56980;DHT22;42867;48.186;11.534;2022-08-11T21:47:29;22.00;56.70
56980;DHT22;42867;48.186;11.534;2022-08-11T21:53:00;21.90;58.00
56980;DHT22;42867;48.186;11.534;2022-08-11T21:55:45;22.20;67.70
56980;DHT22;42867;48.186;11.534;2022-08-11T21:58:30;21.70;57.50
56980;DHT22;42867;48.186;11.534;2022-08-11T22:01:16;21.70;73.80
56980;DHT22;42867;48.186;11.534;2022-08-11T22:04:01;22.00;72.70
56980;DHT22;42867;48.186;11.534;2022-08-11T22:06:46;19.20;57.10
56980;DHT22;42867;48.186;11.534;2022-08-11T22:12:16;21.30;74.80
56980;DHT22;42867;48.186;11.534;2022-08-11T22:15:01;21.00;75.70
56980;DHT22;42867;48.186;11.534;2022-08-11T22:20:31;21.00;66.30
56980;DHT22;42867;48.186;11.534;2022-08-11T22:23:17;21.20;76.00
56980;DHT22;42867;48.186;11.534;2022-08-11T22:26:03;21.20;76.10
56980;DHT22;42867;48.186;11.534;2022-08-11T22:31:35;20.90;60.00
56980;DHT22;42867;48.186;11.534;2022-08-11T22:34:21;20.90;60.10
56980;DHT22;42867;48.186;11.534;2022-08-11T22:37:06;20.80;61.00
56980;DHT22;42867;48.186;11.534;2022-08-11T22:42:36;20.80;76.40
56980;DHT22;42867;48.186;11.534;2022-08-11T22:48:07;20.50;78.70
56980;DHT22;42867;48.186;11.534;2022-08-11T22:50:52;20.90;63.00
56980;DHT22;42867;48.186;11.534;2022-08-11T22:53:38;20.50;77.90